sensor_id;sensor_type;location;lat;lon;timestamp;P1;durP1;ratioP1;P2;durP2;ratioP2
19137;SDS011;68178;52.188;5.598;2023-04-24T00:00:07;6.65;;;6.07;;
19137;SDS011;68178;52.188;5.598;2023-04-24T00:02:37;6.30;;;5.80;;
19137;SDS011;68178;52.188;5.598;2023-04-24T00:05:04;4.75;;;4.30;;
19137;SDS011;68178;52.188;5.598;2023-04-24T00:07:30;3.00;;;2.70;;
19137;SDS011;68178;52.188;5.598;2023-04-24T00:09:56;3.03;;;2.83;;
19137;SDS011;68178;52.188;5.598;2023-04-24T00:12:25;3.05;;;2.85;;
19137;SDS011;68178;52.188;5.598;2023-04-24T00:14:50;4.53;;;3.10;;
19137;SDS011;68178;52.188;5.598;2023-04-24T00:17:16;3.50;;;3.15;;
19137;SDS011;68178;52.188;5.598;2023-04-24T00:19:45;3.28;;;3.08;;
19137;SDS011;68178;52.188;5.598;2023-04-24T00:22:11;4.00;;;3.63;;
19137;SDS011;68178;52.188;5.598;2023-04-24T00:24:38;3.15;;;2.95;;
19137;SDS011;68178;52.188;5.598;2023-04-24T00:27:04;4.93;;;3.95;;
19137;SDS011;68178;52.188;5.598;2023-04-24T00:29:29;4.93;;;4.55;;
19137;SDS011;68178;52.188;5.598;2023-04-24T00:31:55;6.38;;;5.90;;
19137;SDS011;68178;52.188;5.598;2023-04-24T00:34:20;7.60;;;6.97;;
19137;SDS011;68178;52.188;5.598;2023-04-24T00:36:46;7.13;;;6.53;;
19137;SDS011;68178;52.188;5.598;2023-04-24T00:39:13;6.35;;;5.85;;
19137;SDS011;68178;52.188;5.598;2023-04-24T00:41:40;6.70;;;6.10;;
19137;SDS011;68178;52.188;5.598;2023-04-24T00:44:06;5.95;;;5.35;;
19137;SDS011;68178;52.188;5.598;2023-04-24T00:46:32;5.90;;;5.43;;
19137;SDS011;68178;52.188;5.598;2023-04-24T00:48:58;6.30;;;5.75;;
19137;SDS011;68178;52.188;5.598;2023-04-24T00:51:24;6.68;;;6.07;;
19137;SDS011;68178;52.188;5.598;2023-04-24T00:53:50;7.00;;;6.38;;
19137;SDS011;68178;52.188;5.598;2023-04-24T00:56:17;7.20;;;6.50;;
19137;SDS011;68178;52.188;5.598;2023-04-24T00:58:43;7.90;;;6.85;;
19137;SDS011;68178;52.188;5.598;2023-04-24T01:01:09;8.35;;;7.55;;
19137;SDS011;68178;52.188;5.598;2023-04-24T01:03:36;9.00;;;8.15;;
19137;SDS011;68178;52.188;5.598;2023-04-24T01:06:02;10.20;;;8.40;;
19137;SDS011;68178;52.188;5.598;2023-04-24T01:08:28;9.93;;;8.98;;
19137;SDS011;68178;52.188;5.598;2023-04-24T01:10:54;9.25;;;8.35;;
19137;SDS011;68178;52.188;5.598;2023-04-24T01:13:21;10.63;;;9.63;;
19137;SDS011;68178;52.188;5.598;2023-04-24T01:15:50;10.23;;;9.20;;
19137;SDS011;68178;52.188;5.598;2023-04-24T01:18:16;10.23;;;9.32;;
19137;SDS011;68178;52.188;5.598;2023-04-24T01:20:42;10.07;;;9.00;;
19137;SDS011;68178;52.188;5.598;2023-04-24T01:23:10;9.52;;;8.63;;
19137;SDS011;68178;52.188;5.598;2023-04-24T01:25:36;9.70;;;8.77;;
19137;SDS011;68178;52.188;5.598;2023-04-24T01:28:02;10.07;;;9.20;;
19137;SDS011;68178;52.188;5.598;2023-04-24T01:30:28;10.38;;;9.43;;
19137;SDS011;68178;52.188;5.598;2023-04-24T01:32:54;9.57;;;8.75;;
19137;SDS011;68178;52.188;5.598;2023-04-24T01:35:20;10.32;;;9.43;;
19137;SDS011;68178;52.188;5.598;2023-04-24T01:37:46;10.07;;;9.13;;
19137;SDS011;68178;52.188;5.598;2023-04-24T01:40:11;11.75;;;10.50;;
19137;SDS011;68178;52.188;5.598;2023-04-24T01:42:37;11.68;;;10.25;;
19137;SDS011;68178;52.188;5.598;2023-04-24T01:45:03;11.48;;;10.38;;
19137;SDS011;68178;52.188;5.598;2023-04-24T01:47:30;11.13;;;9.95;;
19137;SDS011;68178;52.188;5.598;2023-04-24T01:49:56;12.18;;;10.77;;
19137;SDS011;68178;52.188;5.598;2023-04-24T01:52:23;11.38;;;10.30;;
19137;SDS011;68178;52.188;5.598;2023-04-24T01:54:49;13.02;;;11.38;;
19137;SDS011;68178;52.188;5.598;2023-04-24T01:57:15;12.93;;;11.63;;
19137;SDS011;68178;52.188;5.598;2023-04-24T01:59:41;12.48;;;11.27;;
19137;SDS011;68178;52.188;5.598;2023-04-24T02:02:07;12.75;;;11.45;;
19137;SDS011;68178;52.188;5.598;2023-04-24T02:04:33;12.18;;;10.98;;
19137;SDS011;68178;52.188;5.598;2023-04-24T02:06:58;13.80;;;11.85;;
19137;SDS011;68178;52.188;5.598;2023-04-24T02:09:24;15.20;;;12.18;;
19137;SDS011;68178;52.188;5.598;2023-04-24T02:11:50;15.07;;;12.70;;
19137;SDS011;68178;52.188;5.598;2023-04-24T02:14:15;16.15;;;13.18;;
19137;SDS011;68178;52.188;5.598;2023-04-24T02:16:41;14.15;;;12.60;;
19137;SDS011;68178;52.188;5.598;2023-04-24T02:19:07;15.43;;;12.52;;
19137;SDS011;68178;52.188;5.598;2023-04-24T02:21:33;15.77;;;12.95;;
19137;SDS011;68178;52.188;5.598;2023-04-24T02:23:58;13.88;;;12.48;;
19137;SDS011;68178;52.188;5.598;2023-04-24T02:26:24;14.45;;;12.68;;
19137;SDS011;68178;52.188;5.598;2023-04-24T02:28:49;14.68;;;12.98;;
19137;SDS011;68178;52.188;5.598;2023-04-24T02:31:15;15.57;;;13.63;;
19137;SDS011;68178;52.188;5.598;2023-04-24T02:33:41;14.70;;;12.00;;
19137;SDS011;68178;52.188;5.598;2023-04-24T02:36:06;15.57;;;13.02;;
19137;SDS011;68178;52.188;5.598;2023-04-24T02:38:32;18.63;;;12.32;;
19137;SDS011;68178;52.188;5.598;2023-04-24T02:40:57;18.55;;;12.40;;
19137;SDS011;68178;52.188;5.598;2023-04-24T02:43:23;14.23;;;12.07;;
19137;SDS011;68178;52.188;5.598;2023-04-24T02:45:49;12.52;;;11.32;;
19137;SDS011;68178;52.188;5.598;2023-04-24T02:48:14;12.85;;;11.60;;
19137;SDS011;68178;52.188;5.598;2023-04-24T02:50:40;14.13;;;10.20;;
19137;SDS011;68178;52.188;5.598;2023-04-24T02:53:05;13.15;;;10.43;;
19137;SDS011;68178;52.188;5.598;2023-04-24T02:55:31;10.50;;;9.50;;
19137;SDS011;68178;52.188;5.598;2023-04-24T02:57:57;10.55;;;9.45;;
19137;SDS011;68178;52.188;5.598;2023-04-24T03:00:22;10.15;;;9.10;;
19137;SDS011;68178;52.188;5.598;2023-04-24T03:02:48;11.60;;;10.40;;
19137;SDS011;68178;52.188;5.598;2023-04-24T03:05:14;12.45;;;10.57;;
19137;SDS011;68178;52.188;5.598;2023-04-24T03:07:40;11.30;;;10.10;;
19137;SDS011;68178;52.188;5.598;2023-04-24T03:10:06;14.52;;;10.68;;
19137;SDS011;68178;52.188;5.598;2023-04-24T03:12:32;12.85;;;10.50;;
19137;SDS011;68178;52.188;5.598;2023-04-24T03:14:58;12.43;;;10.20;;
19137;SDS011;68178;52.188;5.598;2023-04-24T03:17:23;13.23;;;10.63;;
19137;SDS011;68178;52.188;5.598;2023-04-24T03:19:49;12.57;;;11.15;;
19137;SDS011;68178;52.188;5.598;2023-04-24T03:22:15;14.10;;;11.10;;
19137;SDS011;68178;52.188;5.598;2023-04-24T03:24:40;13.05;;;11.07;;
19137;SDS011;68178;52.188;5.598;2023-04-24T03:27:06;15.65;;;12.38;;
19137;SDS011;68178;52.188;5.598;2023-04-24T03:29:34;14.73;;;12.52;;
19137;SDS011;68178;52.188;5.598;2023-04-24T03:32:00;15.13;;;11.90;;
19137;SDS011;68178;52.188;5.598;2023-04-24T03:34:25;19.35;;;12.45;;
19137;SDS011;68178;52.188;5.598;2023-04-24T03:36:51;17.13;;;12.77;;
19137;SDS011;68178;52.188;5.598;2023-04-24T03:39:17;20.02;;;13.70;;
19137;SDS011;68178;52.188;5.598;2023-04-24T03:41:43;16.55;;;11.60;;
19137;SDS011;68178;52.188;5.598;2023-04-24T03:44:08;17.20;;;12.48;;
19137;SDS011;68178;52.188;5.598;2023-04-24T03:46:34;14.63;;;11.55;;
19137;SDS011;68178;52.188;5.598;2023-04-24T03:49:00;13.05;;;10.43;;
19137;SDS011;68178;52.188;5.598;2023-04-24T03:51:28;16.20;;;10.00;;
19137;SDS011;68178;52.188;5.598;2023-04-24T03:53:55;12.82;;;8.07;;
19137;SDS011;68178;52.188;5.598;2023-04-24T03:56:20;10.38;;;8.05;;
19137;SDS011;68178;52.188;5.598;2023-04-24T03:58:46;9.88;;;6.97;;
19137;SDS011;68178;52.188;5.598;2023-04-24T04:01:11;9.25;;;7.20;;
19137;SDS011;68178;52.188;5.598;2023-04-24T04:03:38;9.52;;;7.25;;
19137;SDS011;68178;52.188;5.598;2023-04-24T04:06:03;9.57;;;7.72;;
19137;SDS011;68178;52.188;5.598;2023-04-24T04:08:29;8.05;;;7.18;;
19137;SDS011;68178;52.188;5.598;2023-04-24T04:10:55;10.13;;;8.40;;
19137;SDS011;68178;52.188;5.598;2023-04-24T04:13:20;10.13;;;8.35;;
19137;SDS011;68178;52.188;5.598;2023-04-24T04:15:46;11.88;;;8.80;;
19137;SDS011;68178;52.188;5.598;2023-04-24T04:18:11;13.95;;;9.05;;
19137;SDS011;68178;52.188;5.598;2023-04-24T04:20:37;10.27;;;8.68;;
19137;SDS011;68178;52.188;5.598;2023-04-24T04:23:02;13.13;;;9.52;;
19137;SDS011;68178;52.188;5.598;2023-04-24T04:25:28;13.55;;;9.80;;
19137;SDS011;68178;52.188;5.598;2023-04-24T04:27:54;11.75;;;9.02;;
19137;SDS011;68178;52.188;5.598;2023-04-24T04:30:19;11.35;;;9.32;;
19137;SDS011;68178;52.188;5.598;2023-04-24T04:32:45;11.32;;;9.40;;
19137;SDS011;68178;52.188;5.598;2023-04-24T04:35:11;14.65;;;9.23;;
19137;SDS011;68178;52.188;5.598;2023-04-24T04:37:37;14.52;;;9.65;;
19137;SDS011;68178;52.188;5.598;2023-04-24T04:40:03;12.75;;;9.40;;
19137;SDS011;68178;52.188;5.598;2023-04-24T04:42:31;13.70;;;9.20;;
19137;SDS011;68178;52.188;5.598;2023-04-24T04:44:58;11.45;;;8.82;;
19137;SDS011;68178;52.188;5.598;2023-04-24T04:47:24;11.70;;;9.05;;
19137;SDS011;68178;52.188;5.598;2023-04-24T04:49:51;11.38;;;8.63;;
19137;SDS011;68178;52.188;5.598;2023-04-24T04:52:17;10.93;;;8.73;;
19137;SDS011;68178;52.188;5.598;2023-04-24T04:54:43;10.10;;;7.40;;
19137;SDS011;68178;52.188;5.598;2023-04-24T04:57:09;10.93;;;7.88;;
19137;SDS011;68178;52.188;5.598;2023-04-24T04:59:35;10.10;;;7.00;;
19137;SDS011;68178;52.188;5.598;2023-04-24T05:02:02;10.48;;;6.43;;
19137;SDS011;68178;52.188;5.598;2023-04-24T05:04:27;8.68;;;6.85;;
19137;SDS011;68178;52.188;5.598;2023-04-24T05:06:53;9.95;;;7.55;;
19137;SDS011;68178;52.188;5.598;2023-04-24T05:09:21;9.50;;;7.22;;
19137;SDS011;68178;52.188;5.598;2023-04-24T05:11:47;11.35;;;7.85;;
19137;SDS011;68178;52.188;5.598;2023-04-24T05:14:13;12.35;;;9.40;;
19137;SDS011;68178;52.188;5.598;2023-04-24T05:16:38;13.15;;;8.80;;
19137;SDS011;68178;52.188;5.598;2023-04-24T05:19:05;12.18;;;9.15;;
19137;SDS011;68178;52.188;5.598;2023-04-24T05:21:31;13.05;;;9.88;;
19137;SDS011;68178;52.188;5.598;2023-04-24T05:23:56;13.10;;;9.27;;
19137;SDS011;68178;52.188;5.598;2023-04-24T05:26:22;12.65;;;9.90;;
19137;SDS011;68178;52.188;5.598;2023-04-24T05:28:48;14.52;;;10.25;;
19137;SDS011;68178;52.188;5.598;2023-04-24T05:31:16;11.10;;;8.65;;
19137;SDS011;68178;52.188;5.598;2023-04-24T05:33:42;12.00;;;8.43;;
19137;SDS011;68178;52.188;5.598;2023-04-24T05:36:08;11.85;;;8.50;;
19137;SDS011;68178;52.188;5.598;2023-04-24T05:38:34;12.35;;;8.85;;
19137;SDS011;68178;52.188;5.598;2023-04-24T05:41:00;11.93;;;8.68;;
19137;SDS011;68178;52.188;5.598;2023-04-24T05:43:26;12.20;;;8.52;;
19137;SDS011;68178;52.188;5.598;2023-04-24T05:45:51;13.73;;;10.10;;
19137;SDS011;68178;52.188;5.598;2023-04-24T05:48:18;14.30;;;9.77;;
19137;SDS011;68178;52.188;5.598;2023-04-24T05:50:44;12.77;;;9.90;;
19137;SDS011;68178;52.188;5.598;2023-04-24T05:53:10;13.93;;;10.85;;
19137;SDS011;68178;52.188;5.598;2023-04-24T05:55:36;12.63;;;9.65;;
19137;SDS011;68178;52.188;5.598;2023-04-24T05:58:01;14.63;;;10.68;;
19137;SDS011;68178;52.188;5.598;2023-04-24T06:00:27;15.85;;;10.20;;
19137;SDS011;68178;52.188;5.598;2023-04-24T06:02:53;15.27;;;11.05;;
19137;SDS011;68178;52.188;5.598;2023-04-24T06:05:21;13.32;;;10.45;;
19137;SDS011;68178;52.188;5.598;2023-04-24T06:07:50;16.80;;;10.75;;
19137;SDS011;68178;52.188;5.598;2023-04-24T06:10:16;17.50;;;11.40;;
19137;SDS011;68178;52.188;5.598;2023-04-24T06:12:42;19.50;;;10.88;;
19137;SDS011;68178;52.188;5.598;2023-04-24T06:15:08;11.63;;;8.50;;
19137;SDS011;68178;52.188;5.598;2023-04-24T06:17:34;18.02;;;10.68;;
19137;SDS011;68178;52.188;5.598;2023-04-24T06:20:00;16.33;;;10.75;;
19137;SDS011;68178;52.188;5.598;2023-04-24T06:22:26;19.88;;;9.50;;
19137;SDS011;68178;52.188;5.598;2023-04-24T06:24:51;18.00;;;9.60;;
19137;SDS011;68178;52.188;5.598;2023-04-24T06:27:17;11.38;;;7.88;;
19137;SDS011;68178;52.188;5.598;2023-04-24T06:29:42;15.63;;;8.52;;
19137;SDS011;68178;52.188;5.598;2023-04-24T06:32:08;12.02;;;8.48;;
19137;SDS011;68178;52.188;5.598;2023-04-24T06:34:36;9.77;;;6.95;;
19137;SDS011;68178;52.188;5.598;2023-04-24T06:37:02;9.20;;;6.07;;
19137;SDS011;68178;52.188;5.598;2023-04-24T06:39:27;9.63;;;5.75;;
19137;SDS011;68178;52.188;5.598;2023-04-24T06:41:53;6.88;;;5.70;;
19137;SDS011;68178;52.188;5.598;2023-04-24T06:44:21;9.80;;;5.30;;
19137;SDS011;68178;52.188;5.598;2023-04-24T06:46:46;10.48;;;5.43;;
19137;SDS011;68178;52.188;5.598;2023-04-24T06:49:12;7.57;;;4.68;;
19137;SDS011;68178;52.188;5.598;2023-04-24T06:51:40;9.52;;;4.72;;
19137;SDS011;68178;52.188;5.598;2023-04-24T06:54:06;7.18;;;4.00;;
19137;SDS011;68178;52.188;5.598;2023-04-24T06:56:32;6.68;;;4.50;;
19137;SDS011;68178;52.188;5.598;2023-04-24T06:58:59;7.18;;;5.25;;
19137;SDS011;68178;52.188;5.598;2023-04-24T07:01:24;13.18;;;9.35;;
19137;SDS011;68178;52.188;5.598;2023-04-24T07:03:50;25.25;;;13.70;;
19137;SDS011;68178;52.188;5.598;2023-04-24T07:06:15;29.25;;;15.85;;
19137;SDS011;68178;52.188;5.598;2023-04-24T07:08:43;34.83;;;19.77;;
19137;SDS011;68178;52.188;5.598;2023-04-24T07:11:09;28.20;;;17.88;;
19137;SDS011;68178;52.188;5.598;2023-04-24T07:13:34;32.25;;;19.35;;
19137;SDS011;68178;52.188;5.598;2023-04-24T07:16:00;33.67;;;18.42;;
19137;SDS011;68178;52.188;5.598;2023-04-24T07:18:26;30.90;;;18.98;;
19137;SDS011;68178;52.188;5.598;2023-04-24T07:20:51;29.77;;;18.23;;
19137;SDS011;68178;52.188;5.598;2023-04-24T07:23:17;26.13;;;17.42;;
19137;SDS011;68178;52.188;5.598;2023-04-24T07:25:49;26.83;;;17.10;;
19137;SDS011;68178;52.188;5.598;2023-04-24T07:28:15;32.17;;;18.33;;
19137;SDS011;68178;52.188;5.598;2023-04-24T07:30:42;30.45;;;18.83;;
19137;SDS011;68178;52.188;5.598;2023-04-24T07:33:08;24.98;;;16.90;;
19137;SDS011;68178;52.188;5.598;2023-04-24T07:35:33;26.30;;;17.90;;
19137;SDS011;68178;52.188;5.598;2023-04-24T07:37:59;26.80;;;16.60;;
19137;SDS011;68178;52.188;5.598;2023-04-24T07:40:27;28.42;;;16.42;;
19137;SDS011;68178;52.188;5.598;2023-04-24T07:42:52;18.80;;;15.32;;
19137;SDS011;68178;52.188;5.598;2023-04-24T07:45:21;28.25;;;16.75;;
19137;SDS011;68178;52.188;5.598;2023-04-24T07:47:48;24.63;;;16.20;;
19137;SDS011;68178;52.188;5.598;2023-04-24T07:50:15;26.00;;;17.05;;
19137;SDS011;68178;52.188;5.598;2023-04-24T07:52:41;28.52;;;16.23;;
19137;SDS011;68178;52.188;5.598;2023-04-24T07:55:09;27.65;;;16.98;;
19137;SDS011;68178;52.188;5.598;2023-04-24T07:57:35;26.65;;;17.55;;
19137;SDS011;68178;52.188;5.598;2023-04-24T08:00:02;27.60;;;17.33;;
19137;SDS011;68178;52.188;5.598;2023-04-24T08:02:28;23.52;;;15.00;;
19137;SDS011;68178;52.188;5.598;2023-04-24T08:04:54;21.08;;;15.02;;
19137;SDS011;68178;52.188;5.598;2023-04-24T08:07:20;31.27;;;16.02;;
19137;SDS011;68178;52.188;5.598;2023-04-24T08:09:45;25.58;;;15.80;;
19137;SDS011;68178;52.188;5.598;2023-04-24T08:12:11;21.30;;;15.75;;
19137;SDS011;68178;52.188;5.598;2023-04-24T08:14:37;33.10;;;17.38;;
19137;SDS011;68178;52.188;5.598;2023-04-24T08:17:02;25.90;;;15.88;;
19137;SDS011;68178;52.188;5.598;2023-04-24T08:19:28;22.30;;;15.82;;
19137;SDS011;68178;52.188;5.598;2023-04-24T08:21:54;30.65;;;17.00;;
19137;SDS011;68178;52.188;5.598;2023-04-24T08:24:20;26.70;;;16.45;;
19137;SDS011;68178;52.188;5.598;2023-04-24T08:26:45;29.17;;;18.25;;
19137;SDS011;68178;52.188;5.598;2023-04-24T08:29:11;27.52;;;15.85;;
19137;SDS011;68178;52.188;5.598;2023-04-24T08:31:36;31.50;;;18.00;;
19137;SDS011;68178;52.188;5.598;2023-04-24T08:34:02;29.85;;;16.35;;
19137;SDS011;68178;52.188;5.598;2023-04-24T08:36:27;21.88;;;13.48;;
19137;SDS011;68178;52.188;5.598;2023-04-24T08:38:53;19.63;;;10.25;;
19137;SDS011;68178;52.188;5.598;2023-04-24T08:41:18;19.02;;;9.43;;
19137;SDS011;68178;52.188;5.598;2023-04-24T08:43:47;17.48;;;8.30;;
19137;SDS011;68178;52.188;5.598;2023-04-24T08:46:13;20.42;;;8.57;;
19137;SDS011;68178;52.188;5.598;2023-04-24T08:48:41;22.83;;;9.65;;
19137;SDS011;68178;52.188;5.598;2023-04-24T08:51:07;18.23;;;8.77;;
19137;SDS011;68178;52.188;5.598;2023-04-24T08:53:34;17.00;;;8.48;;
19137;SDS011;68178;52.188;5.598;2023-04-24T08:56:00;19.80;;;7.95;;
19137;SDS011;68178;52.188;5.598;2023-04-24T08:58:26;18.33;;;7.50;;
19137;SDS011;68178;52.188;5.598;2023-04-24T09:00:56;20.15;;;7.97;;
19137;SDS011;68178;52.188;5.598;2023-04-24T09:03:22;16.20;;;6.90;;
19137;SDS011;68178;52.188;5.598;2023-04-24T09:05:48;19.38;;;7.75;;
19137;SDS011;68178;52.188;5.598;2023-04-24T09:08:19;13.45;;;5.15;;
19137;SDS011;68178;52.188;5.598;2023-04-24T09:10:47;19.13;;;6.18;;
19137;SDS011;68178;52.188;5.598;2023-04-24T09:13:13;15.80;;;5.03;;
19137;SDS011;68178;52.188;5.598;2023-04-24T09:15:39;24.05;;;6.43;;
19137;SDS011;68178;52.188;5.598;2023-04-24T09:18:05;11.43;;;5.82;;
19137;SDS011;68178;52.188;5.598;2023-04-24T09:20:32;17.45;;;6.88;;
19137;SDS011;68178;52.188;5.598;2023-04-24T09:22:58;17.63;;;6.40;;
19137;SDS011;68178;52.188;5.598;2023-04-24T09:25:33;21.58;;;6.45;;
19137;SDS011;68178;52.188;5.598;2023-04-24T09:28:04;15.98;;;5.40;;
19137;SDS011;68178;52.188;5.598;2023-04-24T09:30:31;14.93;;;4.93;;
19137;SDS011;68178;52.188;5.598;2023-04-24T09:33:12;14.18;;;4.70;;
19137;SDS011;68178;52.188;5.598;2023-04-24T09:35:41;14.85;;;4.63;;
19137;SDS011;68178;52.188;5.598;2023-04-24T09:38:07;9.35;;;3.80;;
19137;SDS011;68178;52.188;5.598;2023-04-24T09:40:34;15.05;;;4.50;;
19137;SDS011;68178;52.188;5.598;2023-04-24T09:43:00;12.05;;;3.47;;
19137;SDS011;68178;52.188;5.598;2023-04-24T09:45:28;9.18;;;3.50;;
19137;SDS011;68178;52.188;5.598;2023-04-24T09:48:01;15.57;;;4.00;;
19137;SDS011;68178;52.188;5.598;2023-04-24T09:50:29;10.70;;;3.40;;
19137;SDS011;68178;52.188;5.598;2023-04-24T09:53:03;11.23;;;3.97;;
19137;SDS011;68178;52.188;5.598;2023-04-24T09:55:30;8.60;;;3.10;;
19137;SDS011;68178;52.188;5.598;2023-04-24T09:58:00;10.13;;;3.67;;
19137;SDS011;68178;52.188;5.598;2023-04-24T10:00:30;14.98;;;3.45;;
19137;SDS011;68178;52.188;5.598;2023-04-24T10:03:00;9.50;;;3.40;;
19137;SDS011;68178;52.188;5.598;2023-04-24T10:05:30;9.75;;;3.53;;
19137;SDS011;68178;52.188;5.598;2023-04-24T10:08:07;6.20;;;2.53;;
19137;SDS011;68178;52.188;5.598;2023-04-24T10:10:35;11.55;;;3.83;;
19137;SDS011;68178;52.188;5.598;2023-04-24T10:13:03;9.52;;;3.63;;
19137;SDS011;68178;52.188;5.598;2023-04-24T10:15:29;7.20;;;3.33;;
19137;SDS011;68178;52.188;5.598;2023-04-24T10:17:55;11.35;;;3.58;;
19137;SDS011;68178;52.188;5.598;2023-04-24T10:20:24;13.05;;;3.75;;
19137;SDS011;68178;52.188;5.598;2023-04-24T10:22:52;11.48;;;3.25;;
19137;SDS011;68178;52.188;5.598;2023-04-24T10:25:22;6.00;;;3.30;;
19137;SDS011;68178;52.188;5.598;2023-04-24T10:27:50;7.70;;;3.78;;
19137;SDS011;68178;52.188;5.598;2023-04-24T10:30:18;9.20;;;3.35;;
19137;SDS011;68178;52.188;5.598;2023-04-24T10:32:45;10.10;;;3.45;;
19137;SDS011;68178;52.188;5.598;2023-04-24T10:35:14;8.30;;;3.63;;
19137;SDS011;68178;52.188;5.598;2023-04-24T10:37:50;7.95;;;3.00;;
19137;SDS011;68178;52.188;5.598;2023-04-24T10:40:17;11.30;;;3.58;;
19137;SDS011;68178;52.188;5.598;2023-04-24T10:42:51;6.70;;;2.28;;
19137;SDS011;68178;52.188;5.598;2023-04-24T10:45:19;8.07;;;2.15;;
19137;SDS011;68178;52.188;5.598;2023-04-24T10:50:22;7.50;;;2.58;;
19137;SDS011;68178;52.188;5.598;2023-04-24T10:52:48;5.30;;;1.88;;
19137;SDS011;68178;52.188;5.598;2023-04-24T10:58:10;6.25;;;1.92;;
19137;SDS011;68178;52.188;5.598;2023-04-24T11:00:37;1.77;;;1.30;;
19137;SDS011;68178;52.188;5.598;2023-04-24T11:03:12;7.90;;;1.75;;
19137;SDS011;68178;52.188;5.598;2023-04-24T11:06:08;8.00;;;1.90;;
19137;SDS011;68178;52.188;5.598;2023-04-24T11:08:44;6.47;;;2.33;;
19137;SDS011;68178;52.188;5.598;2023-04-24T11:11:14;7.60;;;1.80;;
19137;SDS011;68178;52.188;5.598;2023-04-24T11:21:42;7.90;;;1.92;;
19137;SDS011;68178;52.188;5.598;2023-04-24T11:24:27;5.05;;;1.77;;
19137;SDS011;68178;52.188;5.598;2023-04-24T11:27:39;6.95;;;1.40;;
19137;SDS011;68178;52.188;5.598;2023-04-24T11:29:58;6.13;;;1.65;;
19137;SDS011;68178;52.188;5.598;2023-04-24T11:32:29;5.78;;;1.50;;
19137;SDS011;68178;52.188;5.598;2023-04-24T11:35:00;2.50;;;1.38;;
19137;SDS011;68178;52.188;5.598;2023-04-24T11:37:30;9.52;;;1.77;;
19137;SDS011;68178;52.188;5.598;2023-04-24T11:40:06;2.97;;;1.20;;
19137;SDS011;68178;52.188;5.598;2023-04-24T11:45:06;4.65;;;1.13;;
19137;SDS011;68178;52.188;5.598;2023-04-24T11:47:36;7.93;;;1.55;;
19137;SDS011;68178;52.188;5.598;2023-04-24T11:50:02;5.82;;;0.85;;
19137;SDS011;68178;52.188;5.598;2023-04-24T11:52:30;3.65;;;1.15;;
19137;SDS011;68178;52.188;5.598;2023-04-24T11:55:01;1.75;;;0.60;;
19137;SDS011;68178;52.188;5.598;2023-04-24T11:57:28;5.18;;;1.25;;
19137;SDS011;68178;52.188;5.598;2023-04-24T11:59:58;2.60;;;0.60;;
19137;SDS011;68178;52.188;5.598;2023-04-24T12:02:25;4.20;;;0.73;;
19137;SDS011;68178;52.188;5.598;2023-04-24T12:04:52;4.20;;;1.00;;
19137;SDS011;68178;52.188;5.598;2023-04-24T12:07:19;3.63;;;0.80;;
19137;SDS011;68178;52.188;5.598;2023-04-24T12:09:45;3.35;;;1.00;;
19137;SDS011;68178;52.188;5.598;2023-04-24T12:12:13;1.15;;;0.65;;
19137;SDS011;68178;52.188;5.598;2023-04-24T12:14:50;1.75;;;0.90;;
19137;SDS011;68178;52.188;5.598;2023-04-24T12:17:23;3.40;;;0.77;;
19137;SDS011;68178;52.188;5.598;2023-04-24T12:19:50;2.90;;;1.20;;
19137;SDS011;68178;52.188;5.598;2023-04-24T12:22:16;3.75;;;0.80;;
19137;SDS011;68178;52.188;5.598;2023-04-24T12:27:33;6.75;;;1.25;;
19137;SDS011;68178;52.188;5.598;2023-04-24T12:29:59;3.53;;;0.98;;
19137;SDS011;68178;52.188;5.598;2023-04-24T12:32:26;3.90;;;1.30;;
19137;SDS011;68178;52.188;5.598;2023-04-24T12:34:53;4.43;;;1.00;;
19137;SDS011;68178;52.188;5.598;2023-04-24T12:37:19;6.88;;;1.25;;
19137;SDS011;68178;52.188;5.598;2023-04-24T12:39:57;5.68;;;1.58;;
19137;SDS011;68178;52.188;5.598;2023-04-24T12:42:33;1.98;;;0.90;;
19137;SDS011;68178;52.188;5.598;2023-04-24T12:45:01;3.95;;;1.20;;
19137;SDS011;68178;52.188;5.598;2023-04-24T12:47:29;2.47;;;0.60;;
19137;SDS011;68178;52.188;5.598;2023-04-24T12:49:55;3.58;;;0.88;;
19137;SDS011;68178;52.188;5.598;2023-04-24T12:52:23;5.30;;;0.80;;
19137;SDS011;68178;52.188;5.598;2023-04-24T12:54:54;5.63;;;1.33;;
19137;SDS011;68178;52.188;5.598;2023-04-24T12:57:21;3.35;;;1.30;;
19137;SDS011;68178;52.188;5.598;2023-04-24T12:59:53;3.55;;;1.00;;
19137;SDS011;68178;52.188;5.598;2023-04-24T13:02:23;7.88;;;2.15;;
19137;SDS011;68178;52.188;5.598;2023-04-24T13:04:50;6.30;;;1.98;;
19137;SDS011;68178;52.188;5.598;2023-04-24T13:07:16;7.80;;;1.65;;
19137;SDS011;68178;52.188;5.598;2023-04-24T13:09:42;7.50;;;2.17;;
19137;SDS011;68178;52.188;5.598;2023-04-24T13:12:09;8.15;;;2.38;;
19137;SDS011;68178;52.188;5.598;2023-04-24T13:14:35;10.60;;;2.30;;
19137;SDS011;68178;52.188;5.598;2023-04-24T13:17:01;9.52;;;2.67;;
19137;SDS011;68178;52.188;5.598;2023-04-24T13:19:27;10.38;;;2.97;;
19137;SDS011;68178;52.188;5.598;2023-04-24T13:21:54;7.97;;;2.58;;
19137;SDS011;68178;52.188;5.598;2023-04-24T13:24:21;8.48;;;2.75;;
19137;SDS011;68178;52.188;5.598;2023-04-24T13:26:50;16.10;;;4.00;;
19137;SDS011;68178;52.188;5.598;2023-04-24T13:29:17;11.55;;;3.92;;
19137;SDS011;68178;52.188;5.598;2023-04-24T13:31:42;11.82;;;2.70;;
19137;SDS011;68178;52.188;5.598;2023-04-24T13:34:08;12.52;;;3.17;;
19137;SDS011;68178;52.188;5.598;2023-04-24T13:36:33;10.13;;;3.38;;
19137;SDS011;68178;52.188;5.598;2023-04-24T13:39:00;14.05;;;3.58;;
19137;SDS011;68178;52.188;5.598;2023-04-24T13:41:25;7.60;;;2.85;;
19137;SDS011;68178;52.188;5.598;2023-04-24T13:43:51;8.27;;;2.95;;
19137;SDS011;68178;52.188;5.598;2023-04-24T13:46:16;13.73;;;3.60;;
19137;SDS011;68178;52.188;5.598;2023-04-24T13:48:42;15.35;;;3.35;;
19137;SDS011;68178;52.188;5.598;2023-04-24T13:51:08;12.15;;;2.83;;
19137;SDS011;68178;52.188;5.598;2023-04-24T13:53:33;16.27;;;3.25;;
19137;SDS011;68178;52.188;5.598;2023-04-24T13:56:03;12.80;;;2.85;;
19137;SDS011;68178;52.188;5.598;2023-04-24T13:58:29;15.65;;;2.58;;
19137;SDS011;68178;52.188;5.598;2023-04-24T14:00:55;9.23;;;2.53;;
19137;SDS011;68178;52.188;5.598;2023-04-24T14:03:20;11.82;;;3.10;;
19137;SDS011;68178;52.188;5.598;2023-04-24T14:05:46;13.10;;;3.55;;
19137;SDS011;68178;52.188;5.598;2023-04-24T14:08:11;12.35;;;2.50;;
19137;SDS011;68178;52.188;5.598;2023-04-24T14:10:37;11.73;;;3.47;;
19137;SDS011;68178;52.188;5.598;2023-04-24T14:13:02;13.52;;;3.60;;
19137;SDS011;68178;52.188;5.598;2023-04-24T14:15:28;12.25;;;3.28;;
19137;SDS011;68178;52.188;5.598;2023-04-24T14:17:54;10.40;;;3.30;;
19137;SDS011;68178;52.188;5.598;2023-04-24T14:20:19;12.60;;;3.05;;
19137;SDS011;68178;52.188;5.598;2023-04-24T14:22:45;7.70;;;3.00;;
19137;SDS011;68178;52.188;5.598;2023-04-24T14:25:10;12.55;;;4.05;;
19137;SDS011;68178;52.188;5.598;2023-04-24T14:27:36;11.93;;;3.17;;
19137;SDS011;68178;52.188;5.598;2023-04-24T14:30:02;10.77;;;3.10;;
19137;SDS011;68178;52.188;5.598;2023-04-24T14:32:29;10.00;;;2.72;;
19137;SDS011;68178;52.188;5.598;2023-04-24T14:34:54;10.63;;;2.90;;
19137;SDS011;68178;52.188;5.598;2023-04-24T14:37:20;12.00;;;3.30;;
19137;SDS011;68178;52.188;5.598;2023-04-24T14:39:46;7.05;;;2.17;;
19137;SDS011;68178;52.188;5.598;2023-04-24T14:42:11;8.85;;;2.30;;
19137;SDS011;68178;52.188;5.598;2023-04-24T14:44:37;6.53;;;2.78;;
19137;SDS011;68178;52.188;5.598;2023-04-24T14:47:02;7.05;;;2.90;;
19137;SDS011;68178;52.188;5.598;2023-04-24T14:49:28;6.18;;;2.60;;
19137;SDS011;68178;52.188;5.598;2023-04-24T14:51:53;10.30;;;2.80;;